Rosa, Louisiana
Current Conditions -  °F | °C
As of 5:55 AM on Thursday 27 Nov 2014 (Local Time) from KOPL Reporting Station
Clear Clear  
Wind Chill: 41°   Ceiling: Unl
Heat Index: 44°   Visibility: 10mi
Dew Point: 36°   Wind: 7mph
Humidity: 71%   Direction: 360°N
Pressure: 30.41"   Gusts: NA
Location:  30.7315°N, 91.9765°W
Report Text: KOPL 271155Z AUTO 36006KT 10SM CLR 07/02 A3041 RMK AO2 T00690020 10097 20045
Loading
Personal Weather Stations






























Interactive Weather Map New forecast layout! Learn more

10-Day Weather Forecast

Advertisements
Track Severe Weather on mobile